Time;durP1;ratioP1;P1;durP2;ratioP2;P2;SDS_P1;SDS_P2;PMS_P1;PMS_P2;Temp;Humidity;BMP_temperature;BMP_pressure;BME280_temperature;BME280_humidity;BME280_pressure;Samples;Min_cycle;Max_cycle;Signal;HPM_P1;HPM_P2
2022/05/18 00:00:08;;;;;;;;;;;;;;;17.02;100.00;101820.59;2601481;36;20450;-49
2022/05/18 00:02:36;;;;;;;;;;;;;;;17.06;100.00;101816.56;2589398;31;19952;-49
2022/05/18 00:05:04;;;;;;;;;;;;;;;16.92;100.00;101813.38;2599674;36;19950;-48
2022/05/18 00:07:32;;;;;;;;;;;;;;;16.88;100.00;101813.84;2602448;36;20339;-53
2022/05/18 00:10:00;;;;;;;;;;;;;;;16.90;100.00;101825.41;2605187;36;20090;-55
2022/05/18 00:12:31;;;;;;;;;;;;;;;16.77;100.00;101821.16;2600462;36;19993;-49
2022/05/18 00:14:59;;;;;;;;;;;;;;;16.78;100.00;101824.72;2599075;36;19962;-57
2022/05/18 00:17:27;;;;;;;;;;;;;;;16.74;100.00;101826.91;2601650;36;20555;-51
2022/05/18 00:19:55;;;;;;;;;;;;;;;16.61;100.00;101827.28;2599468;36;20033;-49
2022/05/18 00:22:23;;;;;;;;;;;;;;;16.60;100.00;101827.44;2604808;36;20114;-51
2022/05/18 00:24:51;;;;;;;;;;;;;;;16.56;100.00;101824.19;2602889;36;19977;-50
2022/05/18 00:27:19;;;;;;;;;;;;;;;16.51;100.00;101823.75;2599494;36;19950;-51
2022/05/18 00:29:50;;;;;;;;;;;;;;;16.46;100.00;101824.22;2603000;36;19961;-48
2022/05/18 00:32:18;;;;;;;;;;;;;;;16.42;100.00;101828.22;2602200;36;21161;-49
2022/05/18 00:34:46;;;;;;;;;;;;;;;16.40;100.00;101830.25;2600899;36;20670;-50
2022/05/18 00:37:14;;;;;;;;;;;;;;;16.42;100.00;101835.53;2600696;36;19997;-48
2022/05/18 00:39:42;;;;;;;;;;;;;;;16.40;100.00;101841.13;2603243;31;20054;-52
2022/05/18 00:42:19;;;;;;;;;;;;;;;16.38;100.00;101831.41;2598281;36;19950;-49
2022/05/18 00:44:49;;;;;;;;;;;;;;;16.39;100.00;101833.97;2599907;36;19946;-49
2022/05/18 00:47:17;;;;;;;;;;;;;;;16.35;100.00;101832.56;2599725;36;19954;-50
2022/05/18 00:49:47;;;;;;;;;;;;;;;16.35;100.00;101842.59;2601310;36;19973;-49
2022/05/18 00:52:17;;;;;;;;;;;;;;;16.36;100.00;101842.44;2601831;36;19954;-49
2022/05/18 00:54:45;;;;;;;;;;;;;;;16.40;100.00;101846.56;2601709;36;20588;-49
2022/05/18 00:57:16;;;;;;;;;;;;;;;16.41;100.00;101848.25;2598940;36;20065;-53
2022/05/18 00:59:46;;;;;;;;;;;;;;;16.38;100.00;101848.56;2596725;36;19955;-49
2022/05/18 01:02:17;;;;;;;;;;;;;;;16.34;100.00;101852.59;2599726;36;20073;-51
2022/05/18 01:04:47;;;;;;;;;;;;;;;16.26;100.00;101847.06;2604660;36;20042;-48
2022/05/18 01:07:16;;;;;;;;;;;;;;;16.18;100.00;101849.63;2602708;36;20073;-52
2022/05/18 01:09:44;;;;;;;;;;;;;;;16.13;100.00;101849.25;2611122;36;20065;-50
2022/05/18 01:12:14;;;;;;;;;;;;;;;15.99;100.00;101848.72;2611438;36;19972;-48
2022/05/18 01:14:45;;;;;;;;;;;;;;;16.01;100.00;101852.13;2612326;31;20407;-48
2022/05/18 01:17:14;;;;;;;;;;;;;;;15.98;100.00;101849.72;2612330;36;19957;-50
2022/05/18 01:19:46;;;;;;;;;;;;;;;15.85;100.00;101862.75;2611489;36;20069;-51
2022/05/18 01:22:18;;;;;;;;;;;;;;;15.73;100.00;101854.75;2603751;36;19953;-50
2022/05/18 01:24:53;;;;;;;;;;;;;;;15.70;100.00;101860.47;2600843;36;19959;-49
2022/05/18 01:27:23;;;;;;;;;;;;;;;15.61;100.00;101852.34;2602603;36;20054;-52
2022/05/18 01:29:52;;;;;;;;;;;;;;;15.58;100.00;101857.03;2599865;36;19950;-48
2022/05/18 01:32:20;;;;;;;;;;;;;;;15.58;100.00;101867.91;2599294;36;19950;-48
2022/05/18 01:34:48;;;;;;;;;;;;;;;15.53;100.00;101867.50;2601269;36;19958;-51
2022/05/18 01:37:17;;;;;;;;;;;;;;;15.45;100.00;101866.50;2602153;36;19951;-48
2022/05/18 01:39:47;;;;;;;;;;;;;;;15.38;100.00;101867.03;2601418;36;20050;-51
2022/05/18 01:42:20;;;;;;;;;;;;;;;15.33;100.00;101869.34;2599450;31;19947;-50
2022/05/18 01:44:50;;;;;;;;;;;;;;;15.35;100.00;101875.47;2600214;36;19955;-51
2022/05/18 01:47:18;;;;;;;;;;;;;;;15.29;100.00;101867.06;2601404;36;20629;-50
2022/05/18 01:49:47;;;;;;;;;;;;;;;15.23;100.00;101873.91;2599369;36;20013;-51
2022/05/18 01:52:15;;;;;;;;;;;;;;;15.17;100.00;101866.34;2598891;36;19953;-54
2022/05/18 01:54:45;;;;;;;;;;;;;;;15.12;100.00;101860.47;2600490;36;19950;-50
2022/05/18 01:57:13;;;;;;;;;;;;;;;15.02;100.00;101863.19;2599916;36;21150;-49
2022/05/18 01:59:42;;;;;;;;;;;;;;;14.98;100.00;101853.63;2599862;36;19962;-53
2022/05/18 02:02:14;;;;;;;;;;;;;;;14.89;100.00;101864.31;2600798;31;20511;-49
2022/05/18 02:04:42;;;;;;;;;;;;;;;14.83;100.00;101861.31;2600795;36;20523;-50
2022/05/18 02:07:11;;;;;;;;;;;;;;;14.77;100.00;101859.16;2601483;36;19954;-49
2022/05/18 02:09:40;;;;;;;;;;;;;;;14.78;100.00;101858.16;2605454;36;19957;-49
2022/05/18 02:12:12;;;;;;;;;;;;;;;14.83;100.00;101861.31;2600490;36;20049;-48
2022/05/18 02:14:44;;;;;;;;;;;;;;;14.75;100.00;101855.72;2602813;54;19955;-52
2022/05/18 02:17:15;;;;;;;;;;;;;;;14.76;100.00;101863.69;2600827;31;20456;-48
2022/05/18 02:19:43;;;;;;;;;;;;;;;14.75;100.00;101858.41;2601765;36;19946;-51
2022/05/18 02:22:11;;;;;;;;;;;;;;;14.75;100.00;101863.84;2601498;31;19950;-54
2022/05/18 02:24:39;;;;;;;;;;;;;;;14.71;100.00;101856.00;2603003;36;19989;-49
2022/05/18 02:27:07;;;;;;;;;;;;;;;14.70;100.00;101862.41;2600055;36;20038;-53
2022/05/18 02:29:36;;;;;;;;;;;;;;;14.63;100.00;101861.25;2601563;36;20062;-46
2022/05/18 02:32:04;;;;;;;;;;;;;;;14.57;100.00;101863.63;2598877;36;19951;-51
2022/05/18 02:34:35;;;;;;;;;;;;;;;14.51;100.00;101856.91;2601963;36;20069;-47
2022/05/18 02:37:03;;;;;;;;;;;;;;;14.46;100.00;101853.75;2601235;36;20049;-51
2022/05/18 02:39:31;;;;;;;;;;;;;;;14.47;100.00;101860.88;2601771;31;20346;-49
2022/05/18 02:41:59;;;;;;;;;;;;;;;14.45;100.00;101852.03;2602167;36;19977;-50
2022/05/18 02:44:28;;;;;;;;;;;;;;;14.46;100.00;101856.47;2599670;36;20435;-49
2022/05/18 02:46:57;;;;;;;;;;;;;;;14.39;100.00;101852.59;2601584;36;20038;-51
2022/05/18 02:49:25;;;;;;;;;;;;;;;14.37;100.00;101839.19;2602216;31;20486;-54
2022/05/18 02:51:56;;;;;;;;;;;;;;;14.35;100.00;101844.75;2603905;36;21709;-48
2022/05/18 02:57:05;;;;;;;;;;;;;;;14.30;100.00;101849.69;2602160;31;19962;-51
2022/05/18 02:59:34;;;;;;;;;;;;;;;14.25;100.00;101846.56;2600981;36;20093;-52
2022/05/18 03:02:02;;;;;;;;;;;;;;;14.28;100.00;101840.88;2602749;36;20397;-51
2022/05/18 03:04:31;;;;;;;;;;;;;;;14.23;100.00;101843.09;2600719;36;19997;-50
2022/05/18 03:07:02;;;;;;;;;;;;;;;14.17;100.00;101849.06;2600301;36;20289;-49
2022/05/18 03:09:30;;;;;;;;;;;;;;;14.16;100.00;101847.34;2609528;36;19947;-49
2022/05/18 03:11:58;;;;;;;;;;;;;;;14.19;100.00;101852.50;2613683;36;19982;-48
2022/05/18 03:14:27;;;;;;;;;;;;;;;14.15;100.00;101856.47;2612855;36;20523;-48
2022/05/18 03:16:55;;;;;;;;;;;;;;;14.13;100.00;101859.31;2613303;36;19993;-53
2022/05/18 03:19:23;;;;;;;;;;;;;;;14.14;100.00;101865.59;2613509;36;20066;-52
2022/05/18 03:24:34;;;;;;;;;;;;;;;14.14;100.00;101857.47;2614115;36;19951;-56
2022/05/18 03:27:02;;;;;;;;;;;;;;;14.07;100.00;101854.44;2614080;36;19951;-48
2022/05/18 03:29:30;;;;;;;;;;;;;;;14.12;100.00;101859.44;2613561;36;20049;-51
2022/05/18 03:31:58;;;;;;;;;;;;;;;14.07;100.00;101859.00;2613593;36;19958;-49
2022/05/18 03:34:26;;;;;;;;;;;;;;;14.07;100.00;101864.41;2614084;31;20085;-49
2022/05/18 03:36:54;;;;;;;;;;;;;;;14.09;100.00;101865.13;2612881;36;20078;-49
2022/05/18 03:39:22;;;;;;;;;;;;;;;14.11;100.00;101876.69;2612953;36;20062;-48
2022/05/18 03:41:53;;;;;;;;;;;;;;;14.07;100.00;101869.81;2613542;36;19955;-50
2022/05/18 03:44:21;;;;;;;;;;;;;;;14.11;100.00;101871.28;2612272;36;20272;-48
2022/05/18 03:46:49;;;;;;;;;;;;;;;14.14;100.00;101871.84;2613336;36;20046;-48
2022/05/18 03:49:17;;;;;;;;;;;;;;;14.24;100.00;101874.63;2613674;36;20321;-49
2022/05/18 03:51:49;;;;;;;;;;;;;;;14.25;100.00;101865.50;2613256;36;20421;-48
2022/05/18 03:54:17;;;;;;;;;;;;;;;14.32;100.00;101874.78;2613578;36;19969;-50
2022/05/18 03:56:45;;;;;;;;;;;;;;;14.41;100.00;101874.97;2613870;36;20041;-49
2022/05/18 03:59:16;;;;;;;;;;;;;;;14.47;100.00;101875.28;2612998;36;20030;-50
2022/05/18 04:01:44;;;;;;;;;;;;;;;14.55;100.00;101875.44;2614414;36;20442;-48
2022/05/18 04:04:12;;;;;;;;;;;;;;;14.63;100.00;101885.63;2612064;31;20037;-50
2022/05/18 04:06:40;;;;;;;;;;;;;;;14.68;100.00;101880.66;2613021;36;19951;-54
2022/05/18 04:09:08;;;;;;;;;;;;;;;14.76;100.00;101881.81;2613321;36;20013;-48
2022/05/18 04:11:36;;;;;;;;;;;;;;;14.79;100.00;101881.53;2613909;36;20424;-49
2022/05/18 04:14:04;;;;;;;;;;;;;;;14.77;100.00;101886.25;2613222;31;20447;-50
2022/05/18 04:16:35;;;;;;;;;;;;;;;14.84;100.00;101887.41;2612662;36;20097;-51
2022/05/18 04:19:03;;;;;;;;;;;;;;;14.87;100.00;101884.44;2613394;36;19946;-53
2022/05/18 04:21:31;;;;;;;;;;;;;;;15.04;100.00;101894.56;2613160;36;19950;-53
2022/05/18 04:23:59;;;;;;;;;;;;;;;15.11;100.00;101888.59;2613032;36;20053;-53
2022/05/18 04:26:27;;;;;;;;;;;;;;;15.21;100.00;101887.63;2612831;36;20056;-48
2022/05/18 04:28:55;;;;;;;;;;;;;;;15.39;100.00;101890.47;2613252;36;20400;-49
2022/05/18 04:31:23;;;;;;;;;;;;;;;15.57;100.00;101887.88;2612846;36;19965;-53
2022/05/18 04:33:54;;;;;;;;;;;;;;;15.57;100.00;101882.47;2613384;36;20515;-51
2022/05/18 04:36:22;;;;;;;;;;;;;;;15.64;100.00;101896.31;2612716;36;20045;-48
2022/05/18 04:38:50;;;;;;;;;;;;;;;15.58;100.00;101891.47;2613162;36;20058;-52
2022/05/18 04:41:18;;;;;;;;;;;;;;;15.50;100.00;101891.31;2613558;36;20421;-49
2022/05/18 04:43:46;;;;;;;;;;;;;;;15.48;100.00;101891.47;2613197;36;20057;-49
2022/05/18 04:46:14;;;;;;;;;;;;;;;15.52;100.00;101897.50;2611693;36;20503;-54
2022/05/18 04:48:42;;;;;;;;;;;;;;;15.51;100.00;101903.91;2611523;36;20020;-49
2022/05/18 04:51:13;;;;;;;;;;;;;;;15.59;100.00;101901.31;2612444;36;19951;-52
2022/05/18 04:53:41;;;;;;;;;;;;;;;15.77;100.00;101902.31;2612676;36;20053;-53
2022/05/18 04:56:09;;;;;;;;;;;;;;;15.79;100.00;101901.34;2612472;36;19958;-48
2022/05/18 04:58:37;;;;;;;;;;;;;;;15.79;100.00;101901.34;2604912;36;20029;-48
2022/05/18 05:01:07;;;;;;;;;;;;;;;15.90;100.00;101912.03;2612312;36;19976;-48
2022/05/18 05:03:35;;;;;;;;;;;;;;;15.90;100.00;101914.75;2612568;36;20117;-49
2022/05/18 05:06:03;;;;;;;;;;;;;;;15.93;100.00;101917.19;2611827;36;20069;-52
2022/05/18 05:08:34;;;;;;;;;;;;;;;16.07;100.00;101922.16;2610580;36;20018;-52
2022/05/18 05:11:03;;;;;;;;;;;;;;;16.14;100.00;101924.31;2605842;36;20412;-53
2022/05/18 05:13:31;;;;;;;;;;;;;;;16.22;100.00;101925.25;2602819;36;20116;-49
2022/05/18 05:16:03;;;;;;;;;;;;;;;16.27;100.00;101922.13;2598757;36;19946;-48
2022/05/18 05:18:31;;;;;;;;;;;;;;;16.44;100.00;101921.34;2599356;36;19947;-47
2022/05/18 05:20:59;;;;;;;;;;;;;;;16.56;100.00;101919.28;2600643;36;20062;-48
2022/05/18 05:23:28;;;;;;;;;;;;;;;16.75;100.00;101928.34;2600566;36;19946;-47
2022/05/18 05:25:59;;;;;;;;;;;;;;;16.81;100.00;101920.47;2601853;36;20034;-52
2022/05/18 05:28:27;;;;;;;;;;;;;;;16.93;100.00;101918.41;2600162;36;20034;-51
2022/05/18 05:30:55;;;;;;;;;;;;;;;17.03;100.00;101922.94;2597768;36;20490;-49
2022/05/18 05:33:23;;;;;;;;;;;;;;;17.12;100.00;101928.31;2605217;36;20499;-50
2022/05/18 05:35:51;;;;;;;;;;;;;;;17.19;100.00;101928.56;2600149;36;19981;-49
2022/05/18 05:38:19;;;;;;;;;;;;;;;17.40;100.00;101925.56;2599731;31;20047;-48
2022/05/18 05:40:47;;;;;;;;;;;;;;;17.57;100.00;101929.28;2602005;36;19977;-52
2022/05/18 05:43:18;;;;;;;;;;;;;;;17.78;100.00;101923.50;2597308;36;19961;-50
2022/05/18 05:45:56;;;;;;;;;;;;;;;18.06;100.00;101915.22;2602685;36;20705;-49
2022/05/18 05:48:24;;;;;;;;;;;;;;;18.32;100.00;101915.22;2598083;36;20030;-48
2022/05/18 05:50:52;;;;;;;;;;;;;;;18.40;100.00;101922.59;2598935;36;19951;-52
2022/05/18 05:53:20;;;;;;;;;;;;;;;18.55;100.00;101923.69;2599400;36;19985;-53
2022/05/18 05:55:48;;;;;;;;;;;;;;;18.71;100.00;101914.75;2599289;36;19946;-50
2022/05/18 05:58:20;;;;;;;;;;;;;;;18.87;100.00;101907.66;2602430;36;21400;-47
2022/05/18 06:00:48;;;;;;;;;;;;;;;19.00;100.00;101897.13;2598611;36;20050;-51
2022/05/18 06:03:17;;;;;;;;;;;;;;;18.94;100.00;101902.41;2602309;36;19958;-51
2022/05/18 06:05:45;;;;;;;;;;;;;;;19.00;100.00;101904.47;2597149;36;19950;-52
2022/05/18 06:08:13;;;;;;;;;;;;;;;19.33;100.00;101918.19;2598767;31;20574;-55
2022/05/18 06:10:41;;;;;;;;;;;;;;;19.51;100.00;101907.97;2598867;36;19950;-50
2022/05/18 06:13:10;;;;;;;;;;;;;;;19.65;100.00;101916.50;2598977;36;19974;-52
2022/05/18 06:15:41;;;;;;;;;;;;;;;19.74;100.00;101916.34;2600227;31;19946;-48
2022/05/18 06:18:09;;;;;;;;;;;;;;;19.87;100.00;101913.09;2601392;36;20746;-50
2022/05/18 06:20:37;;;;;;;;;;;;;;;19.79;100.00;101915.88;2601282;36;19951;-50
2022/05/18 06:23:10;;;;;;;;;;;;;;;20.37;100.00;101913.03;2600429;36;20046;-54
2022/05/18 06:25:39;;;;;;;;;;;;;;;20.13;100.00;101920.28;2603885;36;20299;-49
2022/05/18 06:28:07;;;;;;;;;;;;;;;20.58;100.00;101913.31;2600423;31;19981;-53
2022/05/18 06:30:35;;;;;;;;;;;;;;;20.64;100.00;101918.06;2599660;36;19954;-50
2022/05/18 06:33:13;;;;;;;;;;;;;;;20.52;100.00;101921.38;2600620;36;19946;-52
2022/05/18 06:35:42;;;;;;;;;;;;;;;20.85;100.00;101927.59;2598670;31;19955;-51
2022/05/18 06:38:14;;;;;;;;;;;;;;;20.79;100.00;101929.16;2601550;36;19950;-54
2022/05/18 06:43:23;;;;;;;;;;;;;;;20.59;100.00;101931.41;2599993;36;20796;-49
2022/05/18 06:45:51;;;;;;;;;;;;;;;20.51;100.00;101939.66;2600078;36;19950;-48
2022/05/18 06:48:22;;;;;;;;;;;;;;;20.52;100.00;101935.88;2599224;36;20109;-54
2022/05/18 06:50:50;;;;;;;;;;;;;;;20.61;100.00;101942.19;2601072;36;19950;-49
2022/05/18 06:53:18;;;;;;;;;;;;;;;20.55;100.00;101941.00;2599332;36;19947;-52
2022/05/18 06:55:47;;;;;;;;;;;;;;;20.69;100.00;101946.81;2601292;36;20027;-51
2022/05/18 06:58:15;;;;;;;;;;;;;;;20.58;100.00;101942.53;2602492;31;19951;-48
2022/05/18 07:00:43;;;;;;;;;;;;;;;20.60;100.00;101948.69;2603736;31;19960;-48
2022/05/18 07:03:11;;;;;;;;;;;;;;;20.54;100.00;101946.63;2602556;36;19963;-51
2022/05/18 07:05:42;;;;;;;;;;;;;;;20.50;100.00;101959.81;2600655;36;20042;-48
2022/05/18 07:08:11;;;;;;;;;;;;;;;20.50;100.00;101968.03;2600221;36;19969;-51
2022/05/18 07:10:39;;;;;;;;;;;;;;;20.44;100.00;101966.00;2600414;36;20101;-54
2022/05/18 07:13:07;;;;;;;;;;;;;;;20.45;100.00;101978.63;2601301;36;19950;-50
2022/05/18 07:15:35;;;;;;;;;;;;;;;20.44;100.00;101977.78;2600909;31;20014;-53
2022/05/18 07:18:03;;;;;;;;;;;;;;;20.53;100.00;101984.09;2603020;36;20069;-50
2022/05/18 07:20:32;;;;;;;;;;;;;;;20.38;100.00;101994.03;2600635;36;19951;-53
2022/05/18 07:23:02;;;;;;;;;;;;;;;20.28;100.00;101989.59;2601160;36;20048;-57
2022/05/18 07:25:30;;;;;;;;;;;;;;;20.63;100.00;101987.47;2601013;36;19958;-52
2022/05/18 07:27:58;;;;;;;;;;;;;;;20.80;100.00;101988.31;2600855;36;20406;-57
2022/05/18 07:30:27;;;;;;;;;;;;;;;20.86;100.00;101994.94;2600676;36;20343;-57
2022/05/18 07:32:55;;;;;;;;;;;;;;;21.19;100.00;101997.56;2601305;36;20501;-54
2022/05/18 07:35:23;;;;;;;;;;;;;;;21.33;100.00;101995.94;2600606;36;19950;-52
2022/05/18 07:37:51;;;;;;;;;;;;;;;21.34;100.00;101995.75;2601596;36;19957;-51
2022/05/18 07:40:22;;;;;;;;;;;;;;;21.38;100.00;101992.66;2600609;36;20140;-49
2022/05/18 07:42:54;;;;;;;;;;;;;;;21.76;100.00;101993.66;2602733;36;20034;-50
2022/05/18 07:45:23;;;;;;;;;;;;;;;21.38;100.00;101996.28;2603552;36;20108;-56
2022/05/18 07:47:52;;;;;;;;;;;;;;;21.78;100.00;102001.69;2604533;31;20335;-50
2022/05/18 07:50:20;;;;;;;;;;;;;;;21.92;100.00;101989.91;2599750;36;19954;-54
2022/05/18 07:52:48;;;;;;;;;;;;;;;21.81;100.00;102001.31;2601891;31;20384;-53
2022/05/18 07:55:16;;;;;;;;;;;;;;;22.19;100.00;101993.13;2599186;36;20050;-51
2022/05/18 07:57:47;;;;;;;;;;;;;;;22.25;100.00;102006.09;2600637;36;19976;-49
2022/05/18 08:00:17;;;;;;;;;;;;;;;22.21;100.00;102015.72;2602199;36;20973;-50
2022/05/18 08:02:45;;;;;;;;;;;;;;;22.46;100.00;102013.63;2600575;36;19951;-48
2022/05/18 08:05:14;;;;;;;;;;;;;;;22.37;100.00;102012.84;2600059;36;19951;-49
2022/05/18 08:07:45;;;;;;;;;;;;;;;22.35;100.00;102020.44;2604070;36;19954;-51
2022/05/18 08:15:38;;;;;;;;;;;;;;;22.15;100.00;102019.22;2601598;36;19957;-51
2022/05/18 08:18:06;;;;;;;;;;;;;;;22.29;100.00;102010.19;2600861;36;20112;-51
2022/05/18 08:20:37;;;;;;;;;;;;;;;22.36;100.00;102005.69;2601245;36;20450;-51
2022/05/18 08:23:05;;;;;;;;;;;;;;;22.59;100.00;102006.66;2602253;36;20392;-49
2022/05/18 08:25:33;;;;;;;;;;;;;;;22.55;100.00;102014.41;2601264;36;20948;-52
2022/05/18 08:28:04;;;;;;;;;;;;;;;22.47;100.00;102011.75;2600583;36;19950;-51
2022/05/18 08:30:32;;;;;;;;;;;;;;;22.44;100.00;102018.47;2602628;36;20039;-54
2022/05/18 08:33:06;;;;;;;;;;;;;;;22.94;100.00;102010.53;2602462;47;20065;-52
2022/05/18 08:35:34;;;;;;;;;;;;;;;22.59;100.00;102021.22;2601171;36;20489;-51
2022/05/18 08:38:02;;;;;;;;;;;;;;;22.88;100.00;102014.88;2601568;36;20000;-47
2022/05/18 08:40:38;;;;;;;;;;;;;;;23.40;100.00;102013.03;2600996;36;20037;-53
2022/05/18 08:43:09;;;;;;;;;;;;;;;23.36;100.00;102019.97;2601111;36;20331;-56
2022/05/18 08:45:38;;;;;;;;;;;;;;;23.53;100.00;102017.84;2600812;36;20408;-50
2022/05/18 08:48:09;;;;;;;;;;;;;;;23.90;100.00;102010.44;2602581;36;19950;-54
2022/05/18 08:50:39;;;;;;;;;;;;;;;23.97;100.00;102018.75;2611792;36;19985;-55
2022/05/18 08:53:13;;;;;;;;;;;;;;;23.38;100.00;102015.13;2612556;36;20034;-49
2022/05/18 08:55:51;;;;;;;;;;;;;;;23.56;100.00;102019.34;2612922;36;20061;-49
2022/05/18 08:58:28;;;;;;;;;;;;;;;23.91;100.00;102025.88;2613319;31;20034;-52
2022/05/18 09:01:00;;;;;;;;;;;;;;;24.01;100.00;102028.28;2604322;36;20393;-57
2022/05/18 09:03:33;;;;;;;;;;;;;;;24.36;100.00;102022.88;2601811;36;20034;-49
2022/05/18 09:06:03;;;;;;;;;;;;;;;24.06;100.00;102023.06;2600453;36;20759;-54
2022/05/18 09:08:35;;;;;;;;;;;;;;;23.77;100.00;102019.34;2598654;36;19954;-50
2022/05/18 09:11:04;;;;;;;;;;;;;;;24.05;100.00;102024.09;2601721;36;20428;-54
2022/05/18 09:13:35;;;;;;;;;;;;;;;24.14;100.00;102019.31;2601322;36;19954;-52
2022/05/18 09:16:10;;;;;;;;;;;;;;;24.59;100.00;102030.09;2599197;31;20058;-52
2022/05/18 09:18:43;;;;;;;;;;;;;;;25.11;100.00;102025.06;2600471;36;19951;-55
2022/05/18 09:21:21;;;;;;;;;;;;;;;25.01;100.00;102030.94;2601859;36;20411;-55
2022/05/18 09:24:04;;;;;;;;;;;;;;;25.25;100.00;102031.47;2599739;36;19977;-51
2022/05/18 09:26:49;;;;;;;;;;;;;;;25.36;100.00;102028.19;2602090;36;20042;-57
2022/05/18 09:29:27;;;;;;;;;;;;;;;25.80;100.00;102045.28;2599797;36;19975;-55
2022/05/18 09:32:03;;;;;;;;;;;;;;;26.27;100.00;102045.38;2600620;36;19946;-53
2022/05/18 09:34:38;;;;;;;;;;;;;;;25.80;100.00;102050.78;2599857;36;19962;-53
2022/05/18 09:37:13;;;;;;;;;;;;;;;25.84;100.00;102043.81;2600216;36;19954;-52
2022/05/18 09:39:43;;;;;;;;;;;;;;;25.82;100.00;102048.66;2600341;31;19951;-50
2022/05/18 09:42:14;;;;;;;;;;;;;;;26.11;100.00;102044.69;2599681;31;19989;-50
2022/05/18 09:44:48;;;;;;;;;;;;;;;26.26;100.00;102043.66;2603877;36;19946;-54
2022/05/18 09:47:20;;;;;;;;;;;;;;;26.49;100.00;102038.53;2601031;36;20057;-53
2022/05/18 09:49:50;;;;;;;;;;;;;;;26.46;100.00;102038.09;2602150;36;19993;-51
2022/05/18 09:52:20;;;;;;;;;;;;;;;26.26;100.00;102041.72;2601550;36;19953;-53
2022/05/18 09:54:48;;;;;;;;;;;;;;;26.20;100.00;102045.34;2600394;31;19946;-53
2022/05/18 09:57:19;;;;;;;;;;;;;;;26.19;100.00;102043.63;2601735;36;20447;-57
2022/05/18 09:59:54;;;;;;;;;;;;;;;26.27;100.00;102039.84;2600899;36;20030;-53
2022/05/18 10:07:46;;;;;;;;;;;;;;;25.80;100.00;102045.28;2601521;36;19954;-54
2022/05/18 10:10:15;;;;;;;;;;;;;;;26.34;100.00;102044.28;2599085;36;19954;-52
2022/05/18 10:12:46;;;;;;;;;;;;;;;26.02;100.00;102045.97;2601268;31;20009;-55
2022/05/18 10:15:24;;;;;;;;;;;;;;;26.41;100.00;102047.03;2600283;36;20288;-50
2022/05/18 10:17:53;;;;;;;;;;;;;;;26.02;100.00;102037.69;2601530;36;20260;-56
2022/05/18 10:20:28;;;;;;;;;;;;;;;25.92;100.00;102048.25;2601196;36;20078;-50
2022/05/18 10:22:56;;;;;;;;;;;;;;;24.95;100.00;102038.13;2602463;36;20475;-52
2022/05/18 10:25:27;;;;;;;;;;;;;;;25.68;100.00;102036.75;2601852;36;20981;-54
2022/05/18 10:27:55;;;;;;;;;;;;;;;26.08;100.00;102031.34;2603407;36;19973;-51
2022/05/18 10:30:28;;;;;;;;;;;;;;;25.82;100.00;102032.13;2601197;31;20000;-54
2022/05/18 10:32:59;;;;;;;;;;;;;;;25.95;100.00;102045.09;2601375;36;20640;-50
2022/05/18 10:35:34;;;;;;;;;;;;;;;26.65;100.00;102036.38;2602055;31;20397;-53
2022/05/18 10:38:03;;;;;;;;;;;;;;;26.46;100.00;102027.06;2600601;36;19946;-57
2022/05/18 10:40:32;;;;;;;;;;;;;;;26.75;100.00;102025.78;2601138;36;20187;-60
2022/05/18 10:43:14;;;;;;;;;;;;;;;26.94;100.00;102024.03;2600894;36;20472;-51
2022/05/18 10:45:55;;;;;;;;;;;;;;;26.87;100.00;102029.59;2602262;36;19950;-52
2022/05/18 10:48:24;;;;;;;;;;;;;;;26.48;100.00;102033.25;2600323;36;20115;-60
2022/05/18 10:51:01;;;;;;;;;;;;;;;26.50;100.00;102022.81;2600373;36;19951;-53
2022/05/18 10:53:34;;;;;;;;;;;;;;;27.13;100.00;102029.72;2601250;31;19951;-54
2022/05/18 10:56:05;;;;;;;;;;;;;;;27.43;100.00;102027.28;2601785;36;19984;-60
2022/05/18 10:58:35;;;;;;;;;;;;;;;27.51;100.00;102027.00;2601432;36;19947;-57
2022/05/18 11:01:09;;;;;;;;;;;;;;;26.61;100.00;102035.97;2602179;36;19951;-52
2022/05/18 11:03:41;;;;;;;;;;;;;;;27.35;100.00;102016.47;2600808;36;19996;-52
2022/05/18 11:06:12;;;;;;;;;;;;;;;26.42;100.00;102026.66;2601433;31;20391;-55
2022/05/18 11:08:40;;;;;;;;;;;;;;;26.75;100.00;102020.25;2600181;36;20457;-61
2022/05/18 11:11:15;;;;;;;;;;;;;;;27.41;100.00;102023.88;2601206;36;20471;-52
2022/05/18 11:13:46;;;;;;;;;;;;;;;26.99;100.00;102026.16;2601562;31;19946;-49
2022/05/18 11:16:25;;;;;;;;;;;;;;;26.61;100.00;102029.63;2600431;36;19974;-52
2022/05/18 11:18:55;;;;;;;;;;;;;;;27.01;100.00;102018.50;2600056;36;19961;-53
2022/05/18 11:21:28;;;;;;;;;;;;;;;26.29;100.00;102027.50;2599909;36;19950;-54
2022/05/18 11:24:03;;;;;;;;;;;;;;;27.03;100.00;102021.88;2599924;36;20375;-51
2022/05/18 11:26:37;;;;;;;;;;;;;;;27.86;100.00;102022.97;2599678;36;19950;-59
2022/05/18 11:29:11;;;;;;;;;;;;;;;27.08;100.00;102027.59;2601441;36;19970;-57
2022/05/18 11:31:53;;;;;;;;;;;;;;;26.66;100.00;102029.81;2600998;36;20697;-52
2022/05/18 11:34:26;;;;;;;;;;;;;;;26.90;100.00;102029.16;2600512;31;20357;-63
2022/05/18 11:37:01;;;;;;;;;;;;;;;26.64;100.00;102040.22;2601590;36;20073;-52
2022/05/18 11:39:33;;;;;;;;;;;;;;;26.76;100.00;102038.53;2599858;36;19950;-56
2022/05/18 11:42:16;;;;;;;;;;;;;;;25.93;100.00;102045.28;2601028;36;19947;-54
2022/05/18 11:44:52;;;;;;;;;;;;;;;25.79;100.00;102043.56;2603476;36;19946;-57
2022/05/18 11:47:30;;;;;;;;;;;;;;;26.15;100.00;102043.22;2600829;36;20081;-48
2022/05/18 11:50:04;;;;;;;;;;;;;;;26.30;100.00;102039.41;2599665;36;19947;-53
2022/05/18 11:52:43;;;;;;;;;;;;;;;26.78;100.00;102041.94;2602214;36;21718;-59
2022/05/18 11:55:22;;;;;;;;;;;;;;;26.75;100.00;102043.22;2601175;36;19946;-52
2022/05/18 11:57:58;;;;;;;;;;;;;;;26.64;100.00;102049.34;2601155;36;19951;-57
2022/05/18 12:00:44;;;;;;;;;;;;;;;27.14;100.00;102037.78;2600078;36;19958;-59
2022/05/18 12:03:27;;;;;;;;;;;;;;;26.44;100.00;102046.59;2601832;36;19950;-54
2022/05/18 12:06:07;;;;;;;;;;;;;;;26.43;100.00;102046.81;2601317;31;20065;-58
2022/05/18 12:08:50;;;;;;;;;;;;;;;26.98;100.00;102047.41;2600509;36;19969;-54
2022/05/18 12:11:24;;;;;;;;;;;;;;;26.40;100.00;102046.19;2602394;36;19985;-53
2022/05/18 12:14:03;;;;;;;;;;;;;;;26.26;100.00;102054.69;2600288;31;20516;-59
2022/05/18 12:16:39;;;;;;;;;;;;;;;27.02;100.00;102053.34;2601609;36;19980;-54
2022/05/18 12:19:13;;;;;;;;;;;;;;;26.96;100.00;102052.31;2601532;36;19947;-53
2022/05/18 12:21:43;;;;;;;;;;;;;;;27.50;100.00;102047.41;2603126;36;19958;-58
2022/05/18 12:24:13;;;;;;;;;;;;;;;27.56;100.00;102054.00;2601975;36;20722;-56
2022/05/18 12:26:45;;;;;;;;;;;;;;;26.88;100.00;102058.91;2601172;36;19974;-52
2022/05/18 12:29:14;;;;;;;;;;;;;;;27.22;100.00;102043.06;2600212;31;19947;-51
2022/05/18 12:31:43;;;;;;;;;;;;;;;27.05;100.00;102047.38;2602155;36;20294;-53
2022/05/18 12:34:21;;;;;;;;;;;;;;;27.34;100.00;102051.56;2601563;31;20518;-62
2022/05/18 12:36:54;;;;;;;;;;;;;;;27.57;100.00;102045.47;2600644;36;20329;-52
2022/05/18 12:39:22;;;;;;;;;;;;;;;26.60;100.00;102056.34;2601226;36;19997;-52
2022/05/18 12:41:52;;;;;;;;;;;;;;;27.75;100.00;102046.66;2600152;36;19962;-52
2022/05/18 12:44:25;;;;;;;;;;;;;;;27.77;98.98;102047.28;2599821;36;19954;-60
2022/05/18 12:46:57;;;;;;;;;;;;;;;27.49;100.00;102054.03;2601215;36;20259;-52
2022/05/18 12:49:37;;;;;;;;;;;;;;;27.53;100.00;102051.66;2602972;36;19946;-52
2022/05/18 12:52:08;;;;;;;;;;;;;;;27.49;100.00;102048.50;2600381;36;19972;-60
2022/05/18 12:54:43;;;;;;;;;;;;;;;26.93;100.00;102056.34;2600708;36;19950;-54
2022/05/18 12:57:20;;;;;;;;;;;;;;;26.99;100.00;102053.78;2601325;36;19958;-52
2022/05/18 12:59:59;;;;;;;;;;;;;;;26.99;100.00;102054.63;2602188;36;19951;-54
2022/05/18 13:02:43;;;;;;;;;;;;;;;27.21;100.00;102057.94;2600903;36;20042;-57